createdAt,value
2018-04-07T00:02:25.961Z,101640.07
2018-04-07T00:04:53.520Z,101646.77
2018-04-07T00:07:20.973Z,101647.14
2018-04-07T00:09:48.494Z,101646.23
2018-04-07T00:12:15.987Z,101640.80
2018-04-07T00:14:43.436Z,101638.17
2018-04-07T00:17:11.006Z,101638.52
2018-04-07T00:19:38.495Z,101632.51
2018-04-07T00:22:06.063Z,101630.92
2018-04-07T00:24:33.516Z,101626.27
2018-04-07T00:27:01.014Z,101627.25
2018-04-07T00:29:28.470Z,101630.70
2018-04-07T00:31:55.930Z,101631.54
2018-04-07T00:34:23.403Z,101628.96
2018-04-07T00:36:50.855Z,101630.14
2018-04-07T00:39:18.328Z,101633.87
2018-04-07T00:41:45.821Z,101633.62
2018-04-07T00:44:13.272Z,101624.24
2018-04-07T00:46:40.717Z,101630.41
2018-04-07T00:49:08.178Z,101621.99
2018-04-07T00:51:35.622Z,101621.42
2018-04-07T00:54:03.100Z,101612.61
2018-04-07T00:56:30.569Z,101613.05
2018-04-07T00:58:58.025Z,101612.21
2018-04-07T01:01:25.502Z,101610.20
2018-04-07T01:03:52.980Z,101600.31
2018-04-07T01:06:20.471Z,101600.05
2018-04-07T01:08:48.028Z,101604.35
2018-04-07T01:11:15.487Z,101595.36
2018-04-07T01:13:42.970Z,101597.28
2018-04-07T01:16:10.434Z,101592.15
2018-04-07T01:21:11.656Z,101588.05
2018-04-07T01:23:39.121Z,101582.63
2018-04-07T01:26:06.610Z,101588.36
2018-04-07T01:28:34.122Z,101582.12
2018-04-07T01:31:01.590Z,101586.30
2018-04-07T01:33:29.102Z,101587.09
2018-04-07T01:35:56.561Z,101586.42
2018-04-07T01:38:24.163Z,101584.59
2018-04-07T01:40:51.660Z,101587.55
2018-04-07T01:43:19.108Z,101586.52
2018-04-07T01:45:46.574Z,101581.86
2018-04-07T01:48:14.054Z,101583.20
2018-04-07T01:50:41.518Z,101584.39
2018-04-07T01:53:08.989Z,101582.19
2018-04-07T01:55:36.466Z,101578.20
2018-04-07T01:58:04.001Z,101587.94
2018-04-07T02:00:31.468Z,101578.89
2018-04-07T02:02:58.944Z,101578.84
2018-04-07T02:05:26.395Z,101574.49
2018-04-07T02:07:53.952Z,101576.11
2018-04-07T02:10:21.405Z,101571.77
2018-04-07T02:12:48.862Z,101572.29
2018-04-07T02:15:16.413Z,101568.27
2018-04-07T02:17:43.864Z,101582.91
2018-04-07T02:20:11.324Z,101575.92
2018-04-07T02:22:38.834Z,101580.22
2018-04-07T02:25:06.295Z,101587.81
2018-04-07T02:27:33.764Z,101583.02
2018-04-07T02:30:01.247Z,101585.13
2018-04-07T02:32:28.702Z,101583.88
2018-04-07T02:34:56.187Z,101580.16
2018-04-07T02:37:23.674Z,101583.37
2018-04-07T02:39:51.201Z,101581.87
2018-04-07T02:42:18.672Z,101583.47
2018-04-07T02:44:46.137Z,101582.28
2018-04-07T02:47:13.619Z,101590.70
2018-04-07T02:49:41.099Z,101587.34
2018-04-07T02:52:08.574Z,101589.87
2018-04-07T02:54:36.035Z,101591.06
2018-04-07T02:57:03.514Z,101592.15
2018-04-07T02:59:30.972Z,101591.31
2018-04-07T03:01:58.425Z,101583.41
2018-04-07T03:04:25.929Z,101577.11
2018-04-07T03:06:53.426Z,101574.58
2018-04-07T03:09:20.888Z,101569.40
2018-04-07T03:11:48.444Z,101575.92
2018-04-07T03:14:15.918Z,101569.47
2018-04-07T03:16:43.468Z,101574.78
2018-04-07T03:19:10.922Z,101557.66
2018-04-07T03:21:38.412Z,101566.81
2018-04-07T03:24:05.942Z,101566.40
2018-04-07T03:26:33.431Z,101564.80
2018-04-07T03:29:00.895Z,101558.27
2018-04-07T03:31:28.408Z,101551.97
2018-04-07T03:33:55.865Z,101551.50
2018-04-07T03:36:23.427Z,101550.47
2018-04-07T03:38:50.912Z,101554.86
2018-04-07T03:41:18.411Z,101536.72
2018-04-07T03:43:46.674Z,101541.16
2018-04-07T03:46:14.159Z,101530.32
2018-04-07T03:48:41.630Z,101539.16
2018-04-07T03:51:09.082Z,101542.92
2018-04-07T03:53:36.582Z,101542.52
2018-04-07T03:56:04.093Z,101542.77
2018-04-07T03:58:31.666Z,101546.13
2018-04-07T04:00:59.210Z,101543.79
2018-04-07T04:03:26.771Z,101535.47
2018-04-07T04:05:54.226Z,101535.37
2018-04-07T04:08:21.711Z,101531.60
2018-04-07T04:10:49.170Z,101527.67
2018-04-07T04:13:16.622Z,101530.94
2018-04-07T04:15:44.099Z,101531.70
2018-04-07T04:18:11.723Z,101527.83
2018-04-07T04:20:39.282Z,101520.19
2018-04-07T04:23:06.735Z,101524.63
2018-04-07T04:25:34.194Z,101518.42
2018-04-07T04:28:01.698Z,101513.05
2018-04-07T04:30:29.210Z,101514.05
2018-04-07T04:32:56.762Z,101502.62
2018-04-07T04:35:24.257Z,101509.70
2018-04-07T04:37:51.717Z,101508.31
2018-04-07T04:40:19.209Z,101504.54
2018-04-07T04:42:46.687Z,101506.04
2018-04-07T04:45:14.143Z,101498.80
2018-04-07T04:47:41.629Z,101496.27
2018-04-07T04:50:09.169Z,101493.73
2018-04-07T04:52:36.618Z,101496.30
2018-04-07T04:55:04.179Z,101491.55
2018-04-07T04:57:31.599Z,101488.59
2018-04-07T04:59:59.110Z,101494.03
2018-04-07T05:02:26.603Z,101493.45
2018-04-07T05:04:54.067Z,101484.44
2018-04-07T05:07:21.534Z,101486.91
2018-04-07T05:09:49.034Z,101488.45
2018-04-07T05:12:16.496Z,101486.36
2018-04-07T05:14:43.947Z,101487.05
2018-04-07T05:17:11.438Z,101482.88
2018-04-07T05:19:38.914Z,101480.41
2018-04-07T05:22:06.385Z,101477.67
2018-04-07T05:24:33.874Z,101481.17
2018-04-07T05:27:01.384Z,101482.48
2018-04-07T05:29:28.860Z,101476.98
2018-04-07T05:31:56.343Z,101486.14
2018-04-07T05:34:23.846Z,101481.56
2018-04-07T05:36:51.318Z,101479.50
2018-04-07T05:39:18.809Z,101471.49
2018-04-07T05:41:46.266Z,101471.73
2018-04-07T05:44:13.783Z,101472.38
2018-04-07T05:46:41.266Z,101469.99
2018-04-07T05:49:08.730Z,101476.08
2018-04-07T05:51:36.187Z,101462.50
2018-04-07T05:54:03.762Z,101465.47
2018-04-07T05:56:31.231Z,101462.87
2018-04-07T05:58:58.690Z,101459.98
2018-04-07T06:01:26.297Z,101458.72
2018-04-07T06:03:53.820Z,101460.87
2018-04-07T06:06:21.380Z,101460.83
2018-04-07T06:08:48.926Z,101454.33
2018-04-07T06:11:16.514Z,101452.78
2018-04-07T06:13:43.967Z,101455.38
2018-04-07T06:16:11.418Z,101465.15
2018-04-07T06:18:38.916Z,101454.22
2018-04-07T06:21:06.540Z,101451.18
2018-04-07T06:23:33.998Z,101456.91
2018-04-07T06:26:01.491Z,101449.86
2018-04-07T06:28:28.950Z,101452.36
2018-04-07T06:30:56.479Z,101452.44
2018-04-07T06:33:23.955Z,101442.98
2018-04-07T06:35:51.438Z,101449.38
2018-04-07T06:38:18.894Z,101446.27
2018-04-07T06:40:46.350Z,101442.56
2018-04-07T06:43:13.829Z,101440.45
2018-04-07T06:45:41.295Z,101445.68
2018-04-07T06:48:08.812Z,101436.23
2018-04-07T06:50:36.278Z,101432.47
2018-04-07T06:53:03.766Z,101420.02
2018-04-07T06:55:31.224Z,101424.11
2018-04-07T06:57:58.722Z,101424.52
2018-04-07T07:00:26.240Z,101420.83
2018-04-07T07:02:53.694Z,101417.95
2018-04-07T07:05:21.172Z,101418.94
2018-04-07T07:07:48.634Z,101408.40
2018-04-07T07:10:16.094Z,101411.67
2018-04-07T07:12:43.608Z,101412.91
2018-04-07T07:15:11.054Z,101418.05
2018-04-07T07:17:38.516Z,101410.37
2018-04-07T07:20:06.024Z,101419.27
2018-04-07T07:22:33.483Z,101418.23
2018-04-07T07:25:00.933Z,101410.31
2018-04-07T07:27:28.420Z,101414.18
2018-04-07T07:29:55.875Z,101410.02
2018-04-07T07:32:23.330Z,101412.02
2018-04-07T07:34:50.808Z,101405.88
2018-04-07T07:37:18.263Z,101408.51
2018-04-07T07:39:45.713Z,101411.72
2018-04-07T07:42:13.312Z,101410.59
2018-04-07T07:44:40.746Z,101409.55
2018-04-07T07:47:08.210Z,101407.13
2018-04-07T07:49:35.696Z,101403.55
2018-04-07T07:52:03.178Z,101404.28
2018-04-07T07:54:30.630Z,101396.50
2018-04-07T07:56:58.110Z,101398.92
2018-04-07T07:59:25.579Z,101401.45
2018-04-07T08:01:53.041Z,101401.27
2018-04-07T08:04:20.534Z,101404.53
2018-04-07T08:06:48.054Z,101398.28
2018-04-07T08:09:15.570Z,101392.66
2018-04-07T08:11:43.052Z,101395.93
2018-04-07T08:14:10.566Z,101390.50
2018-04-07T08:16:38.052Z,101390.55
2018-04-07T08:19:05.515Z,101391.65
2018-04-07T08:21:32.998Z,101396.48
2018-04-07T08:24:00.521Z,101394.59
2018-04-07T08:26:28.032Z,101392.02
2018-04-07T08:28:55.511Z,101392.30
2018-04-07T08:31:22.977Z,101388.17
2018-04-07T08:33:50.479Z,101380.55
2018-04-07T08:36:17.937Z,101381.12
2018-04-07T08:38:45.399Z,101378.88
2018-04-07T08:41:13.198Z,101374.88
2018-04-07T08:43:40.716Z,101380.26
2018-04-07T08:46:08.281Z,101380.45
2018-04-07T08:48:35.761Z,101381.20
2018-04-07T08:51:03.244Z,101371.41
2018-04-07T08:53:30.740Z,101370.23
2018-04-07T08:55:58.254Z,101365.67
2018-04-07T08:58:25.739Z,101351.00
2018-04-07T09:00:53.274Z,101357.02
2018-04-07T09:03:20.752Z,101351.73
2018-04-07T09:05:48.238Z,101357.56
2018-04-07T09:08:15.735Z,101351.89
2018-04-07T09:10:43.203Z,101347.16
2018-04-07T09:13:10.675Z,101341.37
2018-04-07T09:15:38.166Z,101343.86
2018-04-07T09:18:05.729Z,101337.84
2018-04-07T09:20:33.207Z,101334.45
2018-04-07T09:23:00.681Z,101335.52
2018-04-07T09:25:28.134Z,101328.37
2018-04-07T09:27:55.656Z,101331.77
2018-04-07T09:30:23.121Z,101335.37
2018-04-07T09:32:50.725Z,101335.33
2018-04-07T09:35:18.191Z,101334.20
2018-04-07T09:37:45.669Z,101329.69
2018-04-07T09:40:13.171Z,101329.64
2018-04-07T09:42:40.674Z,101318.82
2018-04-07T09:45:08.126Z,101321.70
2018-04-07T09:47:35.683Z,101322.27
2018-04-07T09:50:03.137Z,101320.73
2018-04-07T09:52:30.698Z,101319.91
2018-04-07T09:54:58.252Z,101311.15
2018-04-07T09:57:25.700Z,101314.96
2018-04-07T09:59:53.154Z,101313.23
2018-04-07T10:02:20.634Z,101305.01
2018-04-07T10:04:48.138Z,101304.55
2018-04-07T10:07:15.593Z,101294.16
2018-04-07T10:09:43.091Z,101291.62
2018-04-07T10:12:10.561Z,101298.81
2018-04-07T10:14:38.017Z,101290.11
2018-04-07T10:17:05.513Z,101289.22
2018-04-07T10:19:32.986Z,101289.12
2018-04-07T10:22:00.488Z,101278.15
2018-04-07T10:24:27.979Z,101282.70
2018-04-07T10:26:55.507Z,101282.59
2018-04-07T10:29:22.965Z,101282.30
2018-04-07T10:31:50.425Z,101274.84
2018-04-07T10:34:17.916Z,101277.92
2018-04-07T10:36:45.384Z,101263.84
2018-04-07T10:39:12.854Z,101267.31
2018-04-07T10:41:40.478Z,101260.09
2018-04-07T10:44:07.955Z,101257.80
2018-04-07T10:46:35.422Z,101256.73
2018-04-07T10:49:02.927Z,101249.23
2018-04-07T10:51:30.393Z,101246.18
2018-04-07T10:53:57.929Z,101246.27
2018-04-07T10:56:25.419Z,101245.71
2018-04-07T10:58:52.875Z,101237.20
2018-04-07T11:01:20.371Z,101233.03
2018-04-07T11:03:47.842Z,101236.56
2018-04-07T11:06:15.313Z,101235.38
2018-04-07T11:08:42.794Z,101224.93
2018-04-07T11:11:10.251Z,101220.84
2018-04-07T11:13:37.746Z,101223.09
2018-04-07T11:16:05.261Z,101218.97
2018-04-07T11:18:33.093Z,101219.03
2018-04-07T11:21:00.583Z,101215.22
2018-04-07T11:23:28.078Z,101207.42
2018-04-07T11:25:55.612Z,101209.23
2018-04-07T11:28:23.067Z,101195.60
2018-04-07T11:30:50.569Z,101210.34
2018-04-07T11:33:18.027Z,101205.39
2018-04-07T11:35:45.536Z,101204.89
2018-04-07T11:38:13.057Z,101208.78
2018-04-07T11:40:40.522Z,101204.30
2018-04-07T11:43:07.989Z,101199.42
2018-04-07T11:45:35.511Z,101195.78
2018-04-07T11:48:03.017Z,101193.64
2018-04-07T11:50:30.478Z,101191.64
2018-04-07T11:52:58.084Z,101176.86
2018-04-07T11:55:25.607Z,101171.53
2018-04-07T11:57:53.204Z,101174.72
2018-04-07T12:00:20.674Z,101175.60
2018-04-07T12:02:48.179Z,101170.13
2018-04-07T12:05:15.648Z,101157.50
2018-04-07T12:07:43.106Z,101154.63
2018-04-07T12:10:10.593Z,101150.52
2018-04-07T12:12:38.150Z,101149.44
2018-04-07T12:15:05.617Z,101155.16
2018-04-07T12:17:33.120Z,101149.09
2018-04-07T12:20:00.597Z,101143.33
2018-04-07T12:22:29.039Z,101148.33
2018-04-07T12:24:56.666Z,101138.45
2018-04-07T12:27:24.121Z,101139.81
2018-04-07T12:29:51.585Z,101138.45
2018-04-07T12:32:19.082Z,101135.30
2018-04-07T12:34:46.541Z,101136.94
2018-04-07T12:37:13.994Z,101128.84
2018-04-07T12:39:41.466Z,101124.22
2018-04-07T12:42:08.923Z,101121.85
2018-04-07T12:44:36.401Z,101118.41
2018-04-07T12:47:03.947Z,101118.97
2018-04-07T12:49:31.408Z,101113.32
2018-04-07T12:51:58.864Z,101104.98
2018-04-07T12:54:26.385Z,101104.94
2018-04-07T12:56:53.912Z,101102.48
2018-04-07T12:59:21.367Z,101097.22
2018-04-07T13:01:48.850Z,101096.80
2018-04-07T13:04:16.310Z,101082.93
2018-04-07T13:06:43.772Z,101088.29
2018-04-07T13:09:11.298Z,101082.75
2018-04-07T13:11:38.821Z,101077.78
2018-04-07T13:14:06.301Z,101083.78
2018-04-07T13:16:33.790Z,101068.21
2018-04-07T13:19:01.244Z,101074.13
2018-04-07T13:21:28.712Z,101065.66
2018-04-07T13:23:56.249Z,101067.44
2018-04-07T13:26:23.706Z,101068.86
2018-04-07T13:28:51.180Z,101063.78
2018-04-07T13:31:18.690Z,101058.80
2018-04-07T13:33:46.164Z,101048.59
2018-04-07T13:36:13.624Z,101049.80
2018-04-07T13:38:41.115Z,101039.34
2018-04-07T13:41:08.582Z,101033.98
2018-04-07T13:43:36.034Z,101035.95
2018-04-07T13:46:03.518Z,101022.58
2018-04-07T13:48:31.027Z,101026.64
2018-04-07T13:50:58.522Z,101019.45
2018-04-07T13:53:25.978Z,101017.44
2018-04-07T13:55:53.442Z,101010.97
2018-04-07T13:58:20.958Z,101012.86
2018-04-07T14:00:48.418Z,101005.55
2018-04-07T14:03:15.906Z,101000.49
2018-04-07T14:05:43.457Z,100997.11
2018-04-07T14:08:10.918Z,101007.55
2018-04-07T14:10:38.410Z,100999.55
2018-04-07T14:13:05.878Z,100994.20
2018-04-07T14:15:33.394Z,100987.31
2018-04-07T14:18:00.899Z,100984.63
2018-04-07T14:20:28.382Z,100979.63
2018-04-07T14:22:55.864Z,100975.68
2018-04-07T14:25:23.747Z,100971.56
2018-04-07T14:27:51.422Z,100968.95
2018-04-07T14:30:19.502Z,100963.34
2018-04-07T14:32:47.268Z,100965.89
2018-04-07T14:35:14.803Z,100957.68
2018-04-07T14:37:42.291Z,100959.09
2018-04-07T14:40:09.767Z,100952.48
2018-04-07T14:42:37.290Z,100954.39
2018-04-07T14:45:04.749Z,100949.59
2018-04-07T14:47:32.345Z,100953.66
2018-04-07T14:49:59.833Z,100951.80
2018-04-07T14:52:27.287Z,100957.74
2018-04-07T14:54:55.044Z,100954.43
2018-04-07T14:57:22.664Z,100951.47
2018-04-07T14:59:50.145Z,100945.52
2018-04-07T15:02:17.658Z,100940.62
2018-04-07T15:04:45.215Z,100936.34
2018-04-07T15:07:12.667Z,100938.20
2018-04-07T15:09:40.165Z,100930.86
2018-04-07T15:12:07.618Z,100922.31
2018-04-07T15:14:35.073Z,100933.69
2018-04-07T15:17:02.562Z,100930.08
2018-04-07T15:19:30.115Z,100919.94
2018-04-07T15:21:57.658Z,100922.85
2018-04-07T15:24:25.142Z,100914.92
2018-04-07T15:26:52.694Z,100916.12
2018-04-07T15:29:20.196Z,100910.35
2018-04-07T15:31:47.750Z,100907.16
2018-04-07T15:34:15.240Z,100911.14
2018-04-07T15:36:42.729Z,100909.29
2018-04-07T15:39:10.180Z,100913.86
2018-04-07T15:41:37.723Z,100909.16
2018-04-07T15:44:06.091Z,100905.84
2018-04-07T15:46:33.597Z,100913.42
2018-04-07T15:49:01.082Z,100917.30
2018-04-07T15:51:28.584Z,100907.48
2018-04-07T15:53:56.032Z,100909.23
2018-04-07T15:56:23.503Z,100905.11
2018-04-07T15:58:51.005Z,100905.56
2018-04-07T16:01:18.456Z,100901.37
2018-04-07T16:03:45.950Z,100898.22
2018-04-07T16:06:13.427Z,100900.17
2018-04-07T16:08:40.990Z,100895.56
2018-04-07T16:11:08.502Z,100888.41
2018-04-07T16:13:36.209Z,100894.03
2018-04-07T16:16:03.661Z,100885.16
2018-04-07T16:18:31.225Z,100886.22
2018-04-07T16:20:58.687Z,100885.27
2018-04-07T16:23:26.242Z,100884.39
2018-04-07T16:25:53.737Z,100878.66
2018-04-07T16:28:21.216Z,100868.56
2018-04-07T16:30:48.683Z,100870.16
2018-04-07T16:33:16.173Z,100861.52
2018-04-07T16:35:43.666Z,100870.06
2018-04-07T16:38:11.139Z,100865.70
2018-04-07T16:40:38.594Z,100863.08
2018-04-07T16:43:06.173Z,100860.83
2018-04-07T16:45:33.665Z,100858.96
2018-04-07T16:48:01.133Z,100861.84
2018-04-07T16:50:28.603Z,100865.11
2018-04-07T16:52:56.105Z,100857.48
2018-04-07T16:55:23.664Z,100870.16
2018-04-07T16:57:51.114Z,100859.84
2018-04-07T17:00:18.590Z,100861.28
2018-04-07T17:02:46.484Z,100861.09
2018-04-07T17:05:14.992Z,100861.89
2018-04-07T17:07:42.482Z,100863.28
2018-04-07T17:10:09.979Z,100864.67
2018-04-07T17:12:37.456Z,100863.34
2018-04-07T17:15:04.931Z,100863.16
2018-04-07T17:17:32.469Z,100858.52
2018-04-07T17:20:00.022Z,100852.52
2018-04-07T17:22:27.472Z,100855.94
2018-04-07T17:24:54.930Z,100855.41
2018-04-07T17:27:22.447Z,100854.48
2018-04-07T17:29:49.907Z,100852.76
2018-04-07T17:32:17.374Z,100849.36
2018-04-07T17:34:44.859Z,100848.86
2018-04-07T17:37:12.418Z,100857.97
2018-04-07T17:39:39.878Z,100851.12
2018-04-07T17:42:07.422Z,100852.55
2018-04-07T17:44:34.965Z,100854.50
2018-04-07T17:47:02.498Z,100854.00
2018-04-07T17:49:29.982Z,100853.61
2018-04-07T17:51:57.574Z,100851.03
2018-04-07T17:54:25.034Z,100853.64
2018-04-07T17:56:52.526Z,100852.30
2018-04-07T17:59:20.004Z,100849.68
2018-04-07T18:01:47.470Z,100856.37
2018-04-07T18:04:14.945Z,100854.33
2018-04-07T18:06:42.440Z,100863.64
2018-04-07T18:09:09.899Z,100856.89
2018-04-07T18:11:37.428Z,100859.38
2018-04-07T18:14:04.866Z,100854.29
2018-04-07T18:16:32.318Z,100854.80
2018-04-07T18:18:59.872Z,100858.24
2018-04-07T18:21:27.325Z,100859.61
2018-04-07T18:23:54.877Z,100865.08
2018-04-07T18:26:22.358Z,100869.98
2018-04-07T18:28:49.906Z,100864.34
2018-04-07T18:31:17.368Z,100866.51
2018-04-07T18:33:44.864Z,100866.49
2018-04-07T18:36:12.416Z,100866.41
2018-04-07T18:38:39.891Z,100862.41
2018-04-07T18:41:07.578Z,100869.91
2018-04-07T18:43:35.031Z,100871.41
2018-04-07T18:46:02.554Z,100871.52
2018-04-07T18:48:30.120Z,100876.86
2018-04-07T18:50:57.595Z,100876.28
2018-04-07T18:53:25.087Z,100875.81
2018-04-07T18:55:52.579Z,100875.67
2018-04-07T18:58:20.053Z,100877.02
2018-04-07T19:00:47.525Z,100878.22
2018-04-07T19:03:15.300Z,100883.66
2018-04-07T19:05:42.885Z,100879.95
2018-04-07T19:08:10.338Z,100881.29
2018-04-07T19:10:37.836Z,100881.94
2018-04-07T19:13:05.330Z,100889.81
2018-04-07T19:15:32.792Z,100887.86
2018-04-07T19:18:00.245Z,100893.04
2018-04-07T19:20:27.739Z,100892.30
2018-04-07T19:22:55.198Z,100897.62
2018-04-07T19:25:22.680Z,100901.15
2018-04-07T19:27:50.198Z,100900.17
2018-04-07T19:30:17.674Z,100903.27
2018-04-07T19:32:45.257Z,100902.41
2018-04-07T19:35:12.738Z,100898.89
2018-04-07T19:37:40.274Z,100905.45
2018-04-07T19:40:07.833Z,100906.22
2018-04-07T19:42:35.697Z,100905.39
2018-04-07T19:45:03.170Z,100904.84
2018-04-07T19:47:30.653Z,100902.49
2018-04-07T19:49:58.150Z,100899.14
2018-04-07T19:52:25.611Z,100899.50
2018-04-07T19:54:53.078Z,100898.50
2018-04-07T19:57:20.575Z,100898.04
2018-04-07T19:59:48.047Z,100891.81
2018-04-07T20:02:15.614Z,100895.59
2018-04-07T20:04:43.082Z,100894.97
2018-04-07T20:07:10.639Z,100894.36
2018-04-07T20:09:38.227Z,100887.23
2018-04-07T20:12:05.706Z,100889.66
2018-04-07T20:14:33.218Z,100888.24
2018-04-07T20:17:00.709Z,100885.19
2018-04-07T20:19:28.330Z,100887.58
2018-04-07T20:21:55.937Z,100887.50
2018-04-07T20:24:23.497Z,100882.25
2018-04-07T20:26:51.047Z,100877.55
2018-04-07T20:29:18.518Z,100877.29
2018-04-07T20:31:45.987Z,100878.76
2018-04-07T20:34:13.486Z,100879.92
2018-04-07T20:36:40.957Z,100883.52
2018-04-07T20:39:08.446Z,100880.44
2018-04-07T20:41:35.936Z,100887.61
2018-04-07T20:44:03.430Z,100885.36
2018-04-07T20:46:30.898Z,100894.46
2018-04-07T20:48:58.481Z,100889.24
2018-04-07T20:51:26.002Z,100883.58
2018-04-07T20:53:53.567Z,100884.05
2018-04-07T20:56:21.066Z,100879.80
2018-04-07T20:58:48.582Z,100884.80
2018-04-07T21:01:16.137Z,100881.43
2018-04-07T21:03:43.608Z,100875.16
2018-04-07T21:06:11.091Z,100880.95
2018-04-07T21:08:38.566Z,100878.33
2018-04-07T21:11:06.039Z,100883.78
2018-04-07T21:13:33.518Z,100881.88
2018-04-07T21:16:01.024Z,100879.41
2018-04-07T21:18:28.491Z,100869.80
2018-04-07T21:20:55.975Z,100869.39
2018-04-07T21:23:23.440Z,100864.75
2018-04-07T21:25:51.012Z,100866.45
2018-04-07T21:28:18.591Z,100868.19
2018-04-07T21:30:46.133Z,100866.52
2018-04-07T21:33:13.617Z,100863.11
2018-04-07T21:35:41.211Z,100862.39
2018-04-07T21:38:08.706Z,100868.59
2018-04-07T21:40:36.266Z,100856.05
2018-04-07T21:43:03.726Z,100853.52
2018-04-07T21:45:31.206Z,100856.75
2018-04-07T21:47:58.694Z,100861.31
2018-04-07T21:50:26.228Z,100856.30
2018-04-07T21:52:53.801Z,100850.09
2018-04-07T21:55:21.306Z,100853.47
2018-04-07T21:57:48.813Z,100851.55
2018-04-07T22:00:16.277Z,100850.56
2018-04-07T22:02:43.787Z,100853.38
2018-04-07T22:05:11.286Z,100857.16
2018-04-07T22:07:38.810Z,100861.06
2018-04-07T22:10:06.295Z,100859.49
2018-04-07T22:12:33.768Z,100857.55
2018-04-07T22:15:01.239Z,100853.73
2018-04-07T22:17:28.738Z,100856.51
2018-04-07T22:19:56.289Z,100849.88
2018-04-07T22:22:23.794Z,100848.92
2018-04-07T22:24:51.316Z,100843.06
2018-04-07T22:27:18.807Z,100845.92
2018-04-07T22:29:46.301Z,100840.05
2018-04-07T22:32:13.887Z,100847.95
2018-04-07T22:34:41.358Z,100837.27
2018-04-07T22:37:08.838Z,100848.49
2018-04-07T22:39:36.297Z,100845.05
2018-04-07T22:42:03.778Z,100848.19
2018-04-07T22:44:31.278Z,100853.47
2018-04-07T22:46:58.738Z,100850.33
2018-04-07T22:49:26.257Z,100851.32
2018-04-07T22:51:53.712Z,100853.56
2018-04-07T22:54:21.186Z,100853.38
2018-04-07T22:56:48.702Z,100847.68
2018-04-07T22:59:16.262Z,100844.19
2018-04-07T23:01:43.723Z,100842.74
2018-04-07T23:04:11.238Z,100842.77
2018-04-07T23:06:38.792Z,100837.09
2018-04-07T23:09:06.254Z,100834.05
2018-04-07T23:11:33.814Z,100828.02
2018-04-07T23:14:01.284Z,100835.06
2018-04-07T23:16:28.770Z,100825.84
2018-04-07T23:18:56.244Z,100831.41
2018-04-07T23:21:23.770Z,100832.41
2018-04-07T23:23:51.234Z,100827.61
2018-04-07T23:26:18.723Z,100831.41
2018-04-07T23:28:46.260Z,100829.93
2018-04-07T23:31:13.759Z,100829.06
2018-04-07T23:33:41.219Z,100835.34
2018-04-07T23:36:08.718Z,100832.33
2018-04-07T23:38:36.206Z,100834.38
2018-04-07T23:41:03.751Z,100824.61
2018-04-07T23:43:31.220Z,100825.20
2018-04-07T23:45:58.710Z,100822.77
2018-04-07T23:48:26.171Z,100823.56
2018-04-07T23:50:53.682Z,100818.63
2018-04-07T23:53:21.209Z,100816.00
2018-04-07T23:55:48.669Z,100810.37
2018-04-07T23:58:16.133Z,100817.36
